sensor_id;sensor_type;location;lat;lon;timestamp;temperature;humidity
17728;DHT22;8984;49.268;12.302;2023-01-15T00:02:21;9.20;99.90
17728;DHT22;8984;49.268;12.302;2023-01-15T00:04:52;9.30;99.90
17728;DHT22;8984;49.268;12.302;2023-01-15T00:07:29;9.30;99.90
17728;DHT22;8984;49.268;12.302;2023-01-15T00:10:13;9.30;99.90
17728;DHT22;8984;49.268;12.302;2023-01-15T00:12:48;9.30;99.90
17728;DHT22;8984;49.268;12.302;2023-01-15T00:15:16;9.30;99.90
17728;DHT22;8984;49.268;12.302;2023-01-15T00:18:01;9.40;99.90
17728;DHT22;8984;49.268;12.302;2023-01-15T00:20:47;9.50;99.90
17728;DHT22;8984;49.268;12.302;2023-01-15T00:23:17;9.40;99.90
17728;DHT22;8984;49.268;12.302;2023-01-15T00:26:14;9.50;99.90
17728;DHT22;8984;49.268;12.302;2023-01-15T00:29:14;9.50;99.90
17728;DHT22;8984;49.268;12.302;2023-01-15T00:31:44;9.50;99.90
17728;DHT22;8984;49.268;12.302;2023-01-15T00:34:15;9.50;99.90
17728;DHT22;8984;49.268;12.302;2023-01-15T00:36:47;9.40;99.90
17728;DHT22;8984;49.268;12.302;2023-01-15T00:39:16;9.40;99.90
17728;DHT22;8984;49.268;12.302;2023-01-15T00:41:48;9.40;99.90
17728;DHT22;8984;49.268;12.302;2023-01-15T00:44:17;9.40;99.90
17728;DHT22;8984;49.268;12.302;2023-01-15T00:46:47;9.50;99.90
17728;DHT22;8984;49.268;12.302;2023-01-15T00:49:34;9.50;99.90
17728;DHT22;8984;49.268;12.302;2023-01-15T00:52:10;9.40;99.90
17728;DHT22;8984;49.268;12.302;2023-01-15T00:54:54;9.30;99.90
17728;DHT22;8984;49.268;12.302;2023-01-15T00:57:26;9.30;99.90
17728;DHT22;8984;49.268;12.302;2023-01-15T00:59:54;9.40;99.90
17728;DHT22;8984;49.268;12.302;2023-01-15T01:02:26;9.50;99.90
17728;DHT22;8984;49.268;12.302;2023-01-15T01:05:01;9.50;99.90
17728;DHT22;8984;49.268;12.302;2023-01-15T01:07:32;9.40;99.90
17728;DHT22;8984;49.268;12.302;2023-01-15T01:10:12;9.20;99.90
17728;DHT22;8984;49.268;12.302;2023-01-15T01:12:42;9.40;99.90
17728;DHT22;8984;49.268;12.302;2023-01-15T01:15:20;9.30;99.90
17728;DHT22;8984;49.268;12.302;2023-01-15T01:17:48;9.30;99.90
17728;DHT22;8984;49.268;12.302;2023-01-15T01:20:19;9.30;99.90
17728;DHT22;8984;49.268;12.302;2023-01-15T01:22:58;9.40;99.90
17728;DHT22;8984;49.268;12.302;2023-01-15T01:25:28;9.50;99.90
17728;DHT22;8984;49.268;12.302;2023-01-15T01:28:03;9.60;99.90
17728;DHT22;8984;49.268;12.302;2023-01-15T01:30:50;9.50;99.90
17728;DHT22;8984;49.268;12.302;2023-01-15T01:33:19;9.60;99.90
17728;DHT22;8984;49.268;12.302;2023-01-15T01:35:49;9.60;99.90
17728;DHT22;8984;49.268;12.302;2023-01-15T01:38:24;9.40;99.90
17728;DHT22;8984;49.268;12.302;2023-01-15T01:40:52;9.60;99.90
17728;DHT22;8984;49.268;12.302;2023-01-15T01:43:21;9.40;99.90
17728;DHT22;8984;49.268;12.302;2023-01-15T01:46:11;9.50;99.90
17728;DHT22;8984;49.268;12.302;2023-01-15T01:48:44;9.40;99.90
17728;DHT22;8984;49.268;12.302;2023-01-15T01:51:31;9.30;99.90
17728;DHT22;8984;49.268;12.302;2023-01-15T01:54:24;9.30;99.90
17728;DHT22;8984;49.268;12.302;2023-01-15T01:56:53;9.40;99.90
17728;DHT22;8984;49.268;12.302;2023-01-15T01:59:22;9.30;99.90
17728;DHT22;8984;49.268;12.302;2023-01-15T02:04:50;9.50;99.90
17728;DHT22;8984;49.268;12.302;2023-01-15T02:07:28;9.40;99.90
17728;DHT22;8984;49.268;12.302;2023-01-15T02:10:13;9.30;99.90
17728;DHT22;8984;49.268;12.302;2023-01-15T02:12:48;9.30;99.90
17728;DHT22;8984;49.268;12.302;2023-01-15T02:15:27;9.30;99.90
17728;DHT22;8984;49.268;12.302;2023-01-15T02:18:07;9.40;99.90
17728;DHT22;8984;49.268;12.302;2023-01-15T02:20:47;9.40;99.90
17728;DHT22;8984;49.268;12.302;2023-01-15T02:23:49;9.40;99.90
17728;DHT22;8984;49.268;12.302;2023-01-15T02:27:01;9.50;99.90
17728;DHT22;8984;49.268;12.302;2023-01-15T02:29:38;9.50;99.90
17728;DHT22;8984;49.268;12.302;2023-01-15T02:32:28;9.50;99.90
17728;DHT22;8984;49.268;12.302;2023-01-15T02:35:06;9.50;99.90
17728;DHT22;8984;49.268;12.302;2023-01-15T02:37:45;9.50;99.90
17728;DHT22;8984;49.268;12.302;2023-01-15T02:40:23;9.50;99.90
17728;DHT22;8984;49.268;12.302;2023-01-15T02:42:56;9.50;99.90
17728;DHT22;8984;49.268;12.302;2023-01-15T02:45:39;9.50;99.90
17728;DHT22;8984;49.268;12.302;2023-01-15T02:48:27;9.50;99.90
17728;DHT22;8984;49.268;12.302;2023-01-15T02:51:18;9.30;99.90
17728;DHT22;8984;49.268;12.302;2023-01-15T02:54:01;9.30;99.90
17728;DHT22;8984;49.268;12.302;2023-01-15T02:56:51;9.40;99.90
17728;DHT22;8984;49.268;12.302;2023-01-15T02:59:42;9.30;99.90
17728;DHT22;8984;49.268;12.302;2023-01-15T03:05:08;9.20;99.90
17728;DHT22;8984;49.268;12.302;2023-01-15T03:07:51;9.10;99.90
17728;DHT22;8984;49.268;12.302;2023-01-15T03:10:33;9.30;99.90
17728;DHT22;8984;49.268;12.302;2023-01-15T03:13:04;9.10;99.90
17728;DHT22;8984;49.268;12.302;2023-01-15T03:15:54;9.10;99.90
17728;DHT22;8984;49.268;12.302;2023-01-15T03:18:51;9.10;99.90
17728;DHT22;8984;49.268;12.302;2023-01-15T03:21:27;9.10;99.90
17728;DHT22;8984;49.268;12.302;2023-01-15T03:24:09;9.00;99.90
17728;DHT22;8984;49.268;12.302;2023-01-15T03:26:53;8.90;99.90
17728;DHT22;8984;49.268;12.302;2023-01-15T03:29:26;9.00;99.90
17728;DHT22;8984;49.268;12.302;2023-01-15T03:31:59;9.00;99.90
17728;DHT22;8984;49.268;12.302;2023-01-15T03:34:32;9.00;99.90
17728;DHT22;8984;49.268;12.302;2023-01-15T03:37:05;9.00;99.90
17728;DHT22;8984;49.268;12.302;2023-01-15T03:39:50;8.90;99.90
17728;DHT22;8984;49.268;12.302;2023-01-15T03:42:39;8.90;99.90
17728;DHT22;8984;49.268;12.302;2023-01-15T03:45:17;9.00;99.90
17728;DHT22;8984;49.268;12.302;2023-01-15T03:48:01;9.10;99.90
17728;DHT22;8984;49.268;12.302;2023-01-15T03:50:38;9.10;99.90
17728;DHT22;8984;49.268;12.302;2023-01-15T03:53:13;9.20;99.90
17728;DHT22;8984;49.268;12.302;2023-01-15T03:56:02;9.10;99.90
17728;DHT22;8984;49.268;12.302;2023-01-15T03:58:39;9.10;99.90
17728;DHT22;8984;49.268;12.302;2023-01-15T04:01:17;9.10;99.90
17728;DHT22;8984;49.268;12.302;2023-01-15T04:03:55;9.30;99.90
17728;DHT22;8984;49.268;12.302;2023-01-15T04:06:31;9.20;99.90
17728;DHT22;8984;49.268;12.302;2023-01-15T04:09:11;9.40;99.90
17728;DHT22;8984;49.268;12.302;2023-01-15T04:12:01;9.10;99.90
17728;DHT22;8984;49.268;12.302;2023-01-15T04:14:31;9.10;99.90
17728;DHT22;8984;49.268;12.302;2023-01-15T04:17:04;9.10;99.90
17728;DHT22;8984;49.268;12.302;2023-01-15T04:19:37;9.10;99.90
17728;DHT22;8984;49.268;12.302;2023-01-15T04:22:09;9.10;99.90
17728;DHT22;8984;49.268;12.302;2023-01-15T04:24:39;9.00;99.90
17728;DHT22;8984;49.268;12.302;2023-01-15T04:27:28;9.10;99.90
17728;DHT22;8984;49.268;12.302;2023-01-15T04:29:55;9.30;99.90
17728;DHT22;8984;49.268;12.302;2023-01-15T04:32:36;9.10;99.90
17728;DHT22;8984;49.268;12.302;2023-01-15T04:35:08;9.20;99.90
17728;DHT22;8984;49.268;12.302;2023-01-15T04:37:46;9.10;99.90
17728;DHT22;8984;49.268;12.302;2023-01-15T04:40:17;9.30;99.90
17728;DHT22;8984;49.268;12.302;2023-01-15T04:43:02;9.30;99.90
17728;DHT22;8984;49.268;12.302;2023-01-15T04:48:34;9.10;99.90
17728;DHT22;8984;49.268;12.302;2023-01-15T04:51:13;9.10;99.90
17728;DHT22;8984;49.268;12.302;2023-01-15T04:53:42;9.10;99.90
17728;DHT22;8984;49.268;12.302;2023-01-15T04:56:11;9.10;99.90
17728;DHT22;8984;49.268;12.302;2023-01-15T04:58:40;9.10;99.90
17728;DHT22;8984;49.268;12.302;2023-01-15T05:01:16;9.10;99.90
17728;DHT22;8984;49.268;12.302;2023-01-15T05:03:49;9.10;99.90
17728;DHT22;8984;49.268;12.302;2023-01-15T05:06:26;9.10;99.90
17728;DHT22;8984;49.268;12.302;2023-01-15T05:08:55;9.20;99.90
17728;DHT22;8984;49.268;12.302;2023-01-15T05:11:23;9.10;99.90
17728;DHT22;8984;49.268;12.302;2023-01-15T05:13:57;9.20;99.90
17728;DHT22;8984;49.268;12.302;2023-01-15T05:16:28;9.10;99.90
17728;DHT22;8984;49.268;12.302;2023-01-15T05:19:09;9.10;99.90
17728;DHT22;8984;49.268;12.302;2023-01-15T05:21:42;9.20;99.90
17728;DHT22;8984;49.268;12.302;2023-01-15T05:24:13;9.20;99.90
17728;DHT22;8984;49.268;12.302;2023-01-15T05:26:43;9.20;99.90
17728;DHT22;8984;49.268;12.302;2023-01-15T05:29:12;9.30;99.90
17728;DHT22;8984;49.268;12.302;2023-01-15T05:31:40;9.30;99.90
17728;DHT22;8984;49.268;12.302;2023-01-15T05:34:21;9.40;99.90
17728;DHT22;8984;49.268;12.302;2023-01-15T05:36:59;9.50;99.90
17728;DHT22;8984;49.268;12.302;2023-01-15T05:39:26;9.30;99.90
17728;DHT22;8984;49.268;12.302;2023-01-15T05:42:04;9.40;99.90
17728;DHT22;8984;49.268;12.302;2023-01-15T05:44:34;9.40;99.90
17728;DHT22;8984;49.268;12.302;2023-01-15T05:47:03;9.40;99.90
17728;DHT22;8984;49.268;12.302;2023-01-15T05:49:32;9.50;99.90
17728;DHT22;8984;49.268;12.302;2023-01-15T05:52:12;9.40;99.90
17728;DHT22;8984;49.268;12.302;2023-01-15T05:54:49;9.50;99.90
17728;DHT22;8984;49.268;12.302;2023-01-15T05:57:19;9.40;99.90
17728;DHT22;8984;49.268;12.302;2023-01-15T05:59:49;9.50;99.90
17728;DHT22;8984;49.268;12.302;2023-01-15T06:02:20;9.40;99.90
17728;DHT22;8984;49.268;12.302;2023-01-15T06:04:52;9.50;99.90
17728;DHT22;8984;49.268;12.302;2023-01-15T06:07:23;9.50;99.90
17728;DHT22;8984;49.268;12.302;2023-01-15T06:09:51;9.50;99.90
17728;DHT22;8984;49.268;12.302;2023-01-15T06:12:33;9.50;99.90
17728;DHT22;8984;49.268;12.302;2023-01-15T06:15:04;9.40;99.90
17728;DHT22;8984;49.268;12.302;2023-01-15T06:17:38;9.50;99.90
17728;DHT22;8984;49.268;12.302;2023-01-15T06:20:08;9.60;99.90
17728;DHT22;8984;49.268;12.302;2023-01-15T06:22:40;9.70;99.90
17728;DHT22;8984;49.268;12.302;2023-01-15T06:25:13;9.70;99.90
17728;DHT22;8984;49.268;12.302;2023-01-15T06:27:41;9.70;99.90
17728;DHT22;8984;49.268;12.302;2023-01-15T06:30:15;9.80;99.90
17728;DHT22;8984;49.268;12.302;2023-01-15T06:32:46;9.80;99.90
17728;DHT22;8984;49.268;12.302;2023-01-15T06:35:41;9.90;99.90
17728;DHT22;8984;49.268;12.302;2023-01-15T06:38:17;9.80;99.90
17728;DHT22;8984;49.268;12.302;2023-01-15T06:40:49;9.70;99.90
17728;DHT22;8984;49.268;12.302;2023-01-15T06:43:25;9.80;99.90
17728;DHT22;8984;49.268;12.302;2023-01-15T06:46:10;9.60;99.90
17728;DHT22;8984;49.268;12.302;2023-01-15T06:48:55;9.70;99.90
17728;DHT22;8984;49.268;12.302;2023-01-15T06:51:24;9.70;99.90
17728;DHT22;8984;49.268;12.302;2023-01-15T06:54:06;9.50;99.90
17728;DHT22;8984;49.268;12.302;2023-01-15T06:57:08;9.60;99.90
17728;DHT22;8984;49.268;12.302;2023-01-15T06:59:39;9.60;99.90
17728;DHT22;8984;49.268;12.302;2023-01-15T07:02:11;9.60;99.90
17728;DHT22;8984;49.268;12.302;2023-01-15T07:04:39;9.70;99.90
17728;DHT22;8984;49.268;12.302;2023-01-15T07:07:16;9.60;99.90
17728;DHT22;8984;49.268;12.302;2023-01-15T07:09:45;9.70;99.90
17728;DHT22;8984;49.268;12.302;2023-01-15T07:12:25;9.80;99.90
17728;DHT22;8984;49.268;12.302;2023-01-15T07:15:00;9.80;99.90
17728;DHT22;8984;49.268;12.302;2023-01-15T07:17:30;9.80;99.90
17728;DHT22;8984;49.268;12.302;2023-01-15T07:19:58;9.80;99.90
17728;DHT22;8984;49.268;12.302;2023-01-15T07:22:28;9.90;99.90
17728;DHT22;8984;49.268;12.302;2023-01-15T07:25:03;9.90;99.90
17728;DHT22;8984;49.268;12.302;2023-01-15T07:27:31;9.90;99.90
17728;DHT22;8984;49.268;12.302;2023-01-15T07:30:06;9.90;99.90
17728;DHT22;8984;49.268;12.302;2023-01-15T07:32:37;10.00;99.90
17728;DHT22;8984;49.268;12.302;2023-01-15T07:35:06;10.00;99.90
17728;DHT22;8984;49.268;12.302;2023-01-15T07:37:36;10.10;99.90
17728;DHT22;8984;49.268;12.302;2023-01-15T07:40:14;10.00;99.90
17728;DHT22;8984;49.268;12.302;2023-01-15T07:42:42;10.10;99.90
17728;DHT22;8984;49.268;12.302;2023-01-15T07:45:27;10.00;99.90
17728;DHT22;8984;49.268;12.302;2023-01-15T07:48:12;10.00;99.90
17728;DHT22;8984;49.268;12.302;2023-01-15T07:50:59;10.20;99.90
17728;DHT22;8984;49.268;12.302;2023-01-15T07:53:28;10.20;99.90
17728;DHT22;8984;49.268;12.302;2023-01-15T07:56:05;10.30;99.90
17728;DHT22;8984;49.268;12.302;2023-01-15T07:58:33;10.30;99.90
17728;DHT22;8984;49.268;12.302;2023-01-15T08:01:01;10.30;99.90
17728;DHT22;8984;49.268;12.302;2023-01-15T08:03:29;10.40;99.90
17728;DHT22;8984;49.268;12.302;2023-01-15T08:06:09;10.40;99.90
17728;DHT22;8984;49.268;12.302;2023-01-15T08:08:39;10.30;99.90
17728;DHT22;8984;49.268;12.302;2023-01-15T08:11:18;10.40;99.90
17728;DHT22;8984;49.268;12.302;2023-01-15T08:14:04;10.30;99.90
17728;DHT22;8984;49.268;12.302;2023-01-15T08:16:49;10.40;99.90
17728;DHT22;8984;49.268;12.302;2023-01-15T08:19:34;10.60;99.90
17728;DHT22;8984;49.268;12.302;2023-01-15T08:22:13;10.70;99.90
17728;DHT22;8984;49.268;12.302;2023-01-15T08:24:46;10.70;99.90
17728;DHT22;8984;49.268;12.302;2023-01-15T08:30:23;10.90;99.90
17728;DHT22;8984;49.268;12.302;2023-01-15T08:33:15;10.90;99.90
17728;DHT22;8984;49.268;12.302;2023-01-15T08:35:42;10.90;99.90
17728;DHT22;8984;49.268;12.302;2023-01-15T08:38:11;10.90;99.90
17728;DHT22;8984;49.268;12.302;2023-01-15T08:40:41;10.90;99.90
17728;DHT22;8984;49.268;12.302;2023-01-15T08:43:34;11.10;99.90
17728;DHT22;8984;49.268;12.302;2023-01-15T08:46:13;11.10;99.90
17728;DHT22;8984;49.268;12.302;2023-01-15T08:48:41;11.00;99.90
17728;DHT22;8984;49.268;12.302;2023-01-15T08:51:10;11.00;99.90
17728;DHT22;8984;49.268;12.302;2023-01-15T08:53:44;11.20;99.90
17728;DHT22;8984;49.268;12.302;2023-01-15T08:56:16;11.20;99.90
17728;DHT22;8984;49.268;12.302;2023-01-15T08:58:47;11.30;99.90
17728;DHT22;8984;49.268;12.302;2023-01-15T09:01:16;11.30;99.90
17728;DHT22;8984;49.268;12.302;2023-01-15T09:03:48;11.30;99.90
17728;DHT22;8984;49.268;12.302;2023-01-15T09:06:17;11.40;99.90
17728;DHT22;8984;49.268;12.302;2023-01-15T09:08:45;11.40;99.90
17728;DHT22;8984;49.268;12.302;2023-01-15T09:11:28;11.40;99.90
17728;DHT22;8984;49.268;12.302;2023-01-15T09:14:14;11.40;99.90
17728;DHT22;8984;49.268;12.302;2023-01-15T09:16:52;11.50;99.90
17728;DHT22;8984;49.268;12.302;2023-01-15T09:19:23;11.40;99.90
17728;DHT22;8984;49.268;12.302;2023-01-15T09:21:55;11.40;99.90
17728;DHT22;8984;49.268;12.302;2023-01-15T09:24:32;11.20;99.90
17728;DHT22;8984;49.268;12.302;2023-01-15T09:27:01;11.00;99.90
17728;DHT22;8984;49.268;12.302;2023-01-15T09:29:34;10.70;99.90
17728;DHT22;8984;49.268;12.302;2023-01-15T09:32:19;10.70;99.90
17728;DHT22;8984;49.268;12.302;2023-01-15T09:34:47;10.50;99.90
17728;DHT22;8984;49.268;12.302;2023-01-15T09:37:39;10.40;99.90
17728;DHT22;8984;49.268;12.302;2023-01-15T09:40:33;10.50;99.90
17728;DHT22;8984;49.268;12.302;2023-01-15T09:43:07;10.40;99.90
17728;DHT22;8984;49.268;12.302;2023-01-15T09:46:00;10.30;99.90
17728;DHT22;8984;49.268;12.302;2023-01-15T09:48:55;10.30;99.90
17728;DHT22;8984;49.268;12.302;2023-01-15T09:51:38;10.40;99.90
17728;DHT22;8984;49.268;12.302;2023-01-15T09:54:23;10.40;99.90
17728;DHT22;8984;49.268;12.302;2023-01-15T09:57:02;10.40;99.90
17728;DHT22;8984;49.268;12.302;2023-01-15T09:59:38;10.40;99.90
17728;DHT22;8984;49.268;12.302;2023-01-15T10:02:22;10.50;99.90
17728;DHT22;8984;49.268;12.302;2023-01-15T10:04:58;10.50;99.90
17728;DHT22;8984;49.268;12.302;2023-01-15T10:07:42;10.50;99.90
17728;DHT22;8984;49.268;12.302;2023-01-15T10:10:14;10.50;99.90
17728;DHT22;8984;49.268;12.302;2023-01-15T10:12:46;10.50;99.90
17728;DHT22;8984;49.268;12.302;2023-01-15T10:15:35;10.50;99.90
17728;DHT22;8984;49.268;12.302;2023-01-15T10:18:04;10.50;99.90
17728;DHT22;8984;49.268;12.302;2023-01-15T10:20:54;10.50;99.90
17728;DHT22;8984;49.268;12.302;2023-01-15T10:23:36;10.50;99.90
17728;DHT22;8984;49.268;12.302;2023-01-15T10:26:35;10.50;99.90
17728;DHT22;8984;49.268;12.302;2023-01-15T10:29:12;10.40;99.90
17728;DHT22;8984;49.268;12.302;2023-01-15T10:31:51;10.20;99.90
17728;DHT22;8984;49.268;12.302;2023-01-15T10:34:57;9.90;99.90
17728;DHT22;8984;49.268;12.302;2023-01-15T10:37:33;9.90;99.90
17728;DHT22;8984;49.268;12.302;2023-01-15T10:40:29;10.00;99.90
17728;DHT22;8984;49.268;12.302;2023-01-15T10:43:04;10.00;99.90
17728;DHT22;8984;49.268;12.302;2023-01-15T10:45:46;9.80;99.90
17728;DHT22;8984;49.268;12.302;2023-01-15T10:48:43;9.90;99.90
17728;DHT22;8984;49.268;12.302;2023-01-15T10:51:14;10.00;99.90
17728;DHT22;8984;49.268;12.302;2023-01-15T10:53:44;10.00;99.90
17728;DHT22;8984;49.268;12.302;2023-01-15T10:56:17;10.00;99.90
17728;DHT22;8984;49.268;12.302;2023-01-15T10:58:51;10.10;99.90
17728;DHT22;8984;49.268;12.302;2023-01-15T11:01:20;9.90;99.90
17728;DHT22;8984;49.268;12.302;2023-01-15T11:03:50;9.90;99.90
17728;DHT22;8984;49.268;12.302;2023-01-15T11:06:18;9.60;99.90
17728;DHT22;8984;49.268;12.302;2023-01-15T11:08:49;9.60;99.90
17728;DHT22;8984;49.268;12.302;2023-01-15T11:11:20;9.70;99.90
17728;DHT22;8984;49.268;12.302;2023-01-15T11:13:51;9.70;99.90
17728;DHT22;8984;49.268;12.302;2023-01-15T11:16:37;9.70;99.90
17728;DHT22;8984;49.268;12.302;2023-01-15T11:19:27;9.70;99.90
17728;DHT22;8984;49.268;12.302;2023-01-15T11:22:09;9.70;99.90
17728;DHT22;8984;49.268;12.302;2023-01-15T11:24:37;9.50;99.90
17728;DHT22;8984;49.268;12.302;2023-01-15T11:27:14;9.60;99.90
17728;DHT22;8984;49.268;12.302;2023-01-15T11:29:43;9.60;99.90
17728;DHT22;8984;49.268;12.302;2023-01-15T11:32:19;9.40;99.90
17728;DHT22;8984;49.268;12.302;2023-01-15T11:34:53;9.40;99.90
17728;DHT22;8984;49.268;12.302;2023-01-15T11:37:20;9.40;99.90
17728;DHT22;8984;49.268;12.302;2023-01-15T11:39:51;9.40;99.90
17728;DHT22;8984;49.268;12.302;2023-01-15T11:42:18;9.30;99.90
17728;DHT22;8984;49.268;12.302;2023-01-15T11:45:12;9.40;99.90
17728;DHT22;8984;49.268;12.302;2023-01-15T11:47:56;9.50;99.90
17728;DHT22;8984;49.268;12.302;2023-01-15T11:50:49;9.40;99.90
17728;DHT22;8984;49.268;12.302;2023-01-15T11:53:20;9.30;99.90
17728;DHT22;8984;49.268;12.302;2023-01-15T11:55:52;9.40;99.90
17728;DHT22;8984;49.268;12.302;2023-01-15T11:58:21;9.40;99.90
17728;DHT22;8984;49.268;12.302;2023-01-15T12:00:50;9.40;99.90
17728;DHT22;8984;49.268;12.302;2023-01-15T12:03:20;9.40;99.90
17728;DHT22;8984;49.268;12.302;2023-01-15T12:05:54;9.40;99.90
17728;DHT22;8984;49.268;12.302;2023-01-15T12:09:36;9.40;99.90
17728;DHT22;8984;49.268;12.302;2023-01-15T12:11:38;9.30;99.90
17728;DHT22;8984;49.268;12.302;2023-01-15T12:14:40;9.40;99.90
17728;DHT22;8984;49.268;12.302;2023-01-15T12:17:21;9.30;99.90
17728;DHT22;8984;49.268;12.302;2023-01-15T12:19:56;9.20;99.90
17728;DHT22;8984;49.268;12.302;2023-01-15T12:22:42;9.20;99.90
17728;DHT22;8984;49.268;12.302;2023-01-15T12:25:21;9.20;99.90
17728;DHT22;8984;49.268;12.302;2023-01-15T12:28:09;9.20;99.90
17728;DHT22;8984;49.268;12.302;2023-01-15T12:30:43;9.10;99.90
17728;DHT22;8984;49.268;12.302;2023-01-15T12:33:27;9.20;99.90
17728;DHT22;8984;49.268;12.302;2023-01-15T12:36:00;9.30;99.90
17728;DHT22;8984;49.268;12.302;2023-01-15T12:38:40;9.00;99.90
17728;DHT22;8984;49.268;12.302;2023-01-15T12:41:10;9.20;99.90
17728;DHT22;8984;49.268;12.302;2023-01-15T12:43:38;9.30;99.90
17728;DHT22;8984;49.268;12.302;2023-01-15T12:46:29;9.30;99.90
17728;DHT22;8984;49.268;12.302;2023-01-15T12:49:02;9.40;99.90
17728;DHT22;8984;49.268;12.302;2023-01-15T12:51:34;9.40;99.90
17728;DHT22;8984;49.268;12.302;2023-01-15T12:54:09;9.40;99.90
17728;DHT22;8984;49.268;12.302;2023-01-15T12:56:46;9.20;99.90
17728;DHT22;8984;49.268;12.302;2023-01-15T12:59:19;9.20;99.90
17728;DHT22;8984;49.268;12.302;2023-01-15T13:01:53;9.10;99.90
17728;DHT22;8984;49.268;12.302;2023-01-15T13:04:27;9.10;99.90
17728;DHT22;8984;49.268;12.302;2023-01-15T13:06:59;9.00;99.90
17728;DHT22;8984;49.268;12.302;2023-01-15T13:09:36;9.00;99.90
17728;DHT22;8984;49.268;12.302;2023-01-15T13:12:11;8.90;99.90
17728;DHT22;8984;49.268;12.302;2023-01-15T13:14:38;8.80;99.90
17728;DHT22;8984;49.268;12.302;2023-01-15T13:17:10;8.80;99.90
17728;DHT22;8984;49.268;12.302;2023-01-15T13:19:47;9.00;99.90
17728;DHT22;8984;49.268;12.302;2023-01-15T13:22:19;9.00;99.90
17728;DHT22;8984;49.268;12.302;2023-01-15T13:25:00;9.20;99.90
17728;DHT22;8984;49.268;12.302;2023-01-15T13:27:38;9.30;99.90
17728;DHT22;8984;49.268;12.302;2023-01-15T13:30:18;9.10;99.90
17728;DHT22;8984;49.268;12.302;2023-01-15T13:32:49;8.90;99.90
17728;DHT22;8984;49.268;12.302;2023-01-15T13:35:25;9.10;99.90
17728;DHT22;8984;49.268;12.302;2023-01-15T13:37:56;9.00;99.90
17728;DHT22;8984;49.268;12.302;2023-01-15T13:40:27;9.00;99.90
17728;DHT22;8984;49.268;12.302;2023-01-15T13:42:57;9.00;99.90
17728;DHT22;8984;49.268;12.302;2023-01-15T13:45:34;8.90;99.90
17728;DHT22;8984;49.268;12.302;2023-01-15T13:48:05;8.70;99.90
17728;DHT22;8984;49.268;12.302;2023-01-15T13:50:35;8.60;99.90
17728;DHT22;8984;49.268;12.302;2023-01-15T13:53:13;8.60;99.90
17728;DHT22;8984;49.268;12.302;2023-01-15T13:55:49;8.70;99.90
17728;DHT22;8984;49.268;12.302;2023-01-15T13:58:20;8.70;99.90
17728;DHT22;8984;49.268;12.302;2023-01-15T14:01:00;8.80;99.90
17728;DHT22;8984;49.268;12.302;2023-01-15T14:03:28;8.60;99.90
17728;DHT22;8984;49.268;12.302;2023-01-15T14:05:56;8.60;99.90
17728;DHT22;8984;49.268;12.302;2023-01-15T14:08:26;8.60;99.90
17728;DHT22;8984;49.268;12.302;2023-01-15T14:10:54;8.50;99.90
17728;DHT22;8984;49.268;12.302;2023-01-15T14:16:21;8.40;99.90
17728;DHT22;8984;49.268;12.302;2023-01-15T14:21:52;8.20;99.90
17728;DHT22;8984;49.268;12.302;2023-01-15T14:24:50;8.20;99.90
17728;DHT22;8984;49.268;12.302;2023-01-15T14:27:37;8.20;99.90
17728;DHT22;8984;49.268;12.302;2023-01-15T14:30:33;8.10;99.90
17728;DHT22;8984;49.268;12.302;2023-01-15T14:33:09;8.10;99.90
17728;DHT22;8984;49.268;12.302;2023-01-15T14:35:44;8.10;99.90
17728;DHT22;8984;49.268;12.302;2023-01-15T14:38:15;8.00;99.90
17728;DHT22;8984;49.268;12.302;2023-01-15T14:40:52;8.10;99.90
17728;DHT22;8984;49.268;12.302;2023-01-15T14:43:22;8.10;99.90
17728;DHT22;8984;49.268;12.302;2023-01-15T14:45:50;8.00;99.90
17728;DHT22;8984;49.268;12.302;2023-01-15T14:48:19;7.90;99.90
17728;DHT22;8984;49.268;12.302;2023-01-15T14:50:47;7.80;99.90
17728;DHT22;8984;49.268;12.302;2023-01-15T14:53:30;7.80;99.90
17728;DHT22;8984;49.268;12.302;2023-01-15T14:56:02;7.70;99.90
17728;DHT22;8984;49.268;12.302;2023-01-15T14:58:45;7.60;99.90
17728;DHT22;8984;49.268;12.302;2023-01-15T15:01:23;7.60;99.90
17728;DHT22;8984;49.268;12.302;2023-01-15T15:03:55;7.60;99.90
17728;DHT22;8984;49.268;12.302;2023-01-15T15:06:24;7.60;99.90
17728;DHT22;8984;49.268;12.302;2023-01-15T15:08:56;7.60;99.90
17728;DHT22;8984;49.268;12.302;2023-01-15T15:11:34;7.60;99.90
17728;DHT22;8984;49.268;12.302;2023-01-15T15:14:21;7.50;99.90
17728;DHT22;8984;49.268;12.302;2023-01-15T15:16:50;7.60;99.90
17728;DHT22;8984;49.268;12.302;2023-01-15T15:19:25;7.50;99.90
17728;DHT22;8984;49.268;12.302;2023-01-15T15:21:54;7.50;99.90
17728;DHT22;8984;49.268;12.302;2023-01-15T15:24:26;7.30;99.90
17728;DHT22;8984;49.268;12.302;2023-01-15T15:26:54;7.20;99.90
17728;DHT22;8984;49.268;12.302;2023-01-15T15:29:22;7.20;99.90
17728;DHT22;8984;49.268;12.302;2023-01-15T15:31:51;7.30;99.90
17728;DHT22;8984;49.268;12.302;2023-01-15T15:34:25;7.40;99.90
17728;DHT22;8984;49.268;12.302;2023-01-15T15:36:54;7.30;99.90
17728;DHT22;8984;49.268;12.302;2023-01-15T15:39:24;7.30;99.90
17728;DHT22;8984;49.268;12.302;2023-01-15T15:41:54;7.30;99.90
17728;DHT22;8984;49.268;12.302;2023-01-15T15:44:43;7.20;99.90
17728;DHT22;8984;49.268;12.302;2023-01-15T15:47:37;7.20;99.90
17728;DHT22;8984;49.268;12.302;2023-01-15T15:50:22;7.10;99.90
17728;DHT22;8984;49.268;12.302;2023-01-15T15:52:50;7.00;99.90
17728;DHT22;8984;49.268;12.302;2023-01-15T15:55:18;7.10;99.90
17728;DHT22;8984;49.268;12.302;2023-01-15T15:57:47;7.10;99.90
17728;DHT22;8984;49.268;12.302;2023-01-15T16:00:19;7.00;99.90
17728;DHT22;8984;49.268;12.302;2023-01-15T16:02:47;7.10;99.90
17728;DHT22;8984;49.268;12.302;2023-01-15T16:05:22;7.10;99.90
17728;DHT22;8984;49.268;12.302;2023-01-15T16:07:49;6.90;99.90
17728;DHT22;8984;49.268;12.302;2023-01-15T16:10:21;7.00;99.90
17728;DHT22;8984;49.268;12.302;2023-01-15T16:12:51;6.90;99.90
17728;DHT22;8984;49.268;12.302;2023-01-15T16:15:22;6.90;99.90
17728;DHT22;8984;49.268;12.302;2023-01-15T16:17:51;6.90;99.90
17728;DHT22;8984;49.268;12.302;2023-01-15T16:20:19;6.80;99.90
17728;DHT22;8984;49.268;12.302;2023-01-15T16:22:52;6.60;99.90
17728;DHT22;8984;49.268;12.302;2023-01-15T16:25:22;6.70;99.90
17728;DHT22;8984;49.268;12.302;2023-01-15T16:27:49;6.70;99.90
17728;DHT22;8984;49.268;12.302;2023-01-15T16:30:17;6.50;99.90
17728;DHT22;8984;49.268;12.302;2023-01-15T16:32:46;6.60;99.90
17728;DHT22;8984;49.268;12.302;2023-01-15T16:35:15;6.70;99.90
17728;DHT22;8984;49.268;12.302;2023-01-15T16:37:46;6.60;99.90
17728;DHT22;8984;49.268;12.302;2023-01-15T16:40:23;6.60;99.90
17728;DHT22;8984;49.268;12.302;2023-01-15T16:43:09;6.60;99.90
17728;DHT22;8984;49.268;12.302;2023-01-15T16:45:47;6.40;99.90
17728;DHT22;8984;49.268;12.302;2023-01-15T16:48:28;6.30;99.90
17728;DHT22;8984;49.268;12.302;2023-01-15T16:50:58;6.30;99.90
17728;DHT22;8984;49.268;12.302;2023-01-15T16:53:46;6.40;99.90
17728;DHT22;8984;49.268;12.302;2023-01-15T16:56:25;6.50;99.90
17728;DHT22;8984;49.268;12.302;2023-01-15T16:58:52;6.60;99.90